< < Back
Terminal Aerodrome Forecast


Current Version              Previous Versions:   1  2  3  4  5  6  7  8  9  

Terminal Aerodrome Forecast

349
FTUS42 KMLB 272100 AAA
TAFMCO
TAF AMD
KMCO 272110Z 2721/2818 04011KT P6SM SCT040 BKN070
     FM280000 06005KT P6SM SCT040
     FM280400 VRB03KT P6SM FEW040
     FM281500 09005KT P6SM SCT040=

Latest METAR

855
SAUS70 KWBC 280700 RRI
MTRMCO
METAR KMCO 280653Z 00000KT 10SM FEW050 FEW250 24/22 A2999 RMK AO2 SLP155
T02390222


USA.gov is the U.S. government's official web portal to all federal, state and local government web resources and services.